createdAt,value
2022-11-14T00:00:46.348Z,5.58
2022-11-14T00:11:07.743Z,5.42
2022-11-14T00:21:30.370Z,5.35
2022-11-14T00:31:51.736Z,5.29
2022-11-14T00:42:14.363Z,5.22
2022-11-14T00:52:35.703Z,5.12
2022-11-14T01:02:58.541Z,5.04
2022-11-14T01:13:20.587Z,5.06
2022-11-14T01:23:43.352Z,4.95
2022-11-14T01:34:04.636Z,4.91
2022-11-14T01:44:50.241Z,4.80
2022-11-14T01:55:12.054Z,4.62
2022-11-14T02:05:36.013Z,4.54
2022-11-14T02:15:57.482Z,4.53
2022-11-14T02:26:22.464Z,4.44
2022-11-14T02:36:44.011Z,4.32
2022-11-14T02:47:06.813Z,4.16
2022-11-14T02:57:28.532Z,3.97
2022-11-14T03:07:54.201Z,3.88
2022-11-14T03:18:15.434Z,3.72
2022-11-14T03:28:39.245Z,3.54
2022-11-14T03:39:00.763Z,3.47
2022-11-14T03:49:23.452Z,3.41
2022-11-14T03:59:44.853Z,3.47
2022-11-14T04:10:08.873Z,3.33
2022-11-14T04:20:30.611Z,3.21
2022-11-14T04:30:53.266Z,3.08
2022-11-14T04:41:14.540Z,2.91
2022-11-14T04:51:37.594Z,2.79
2022-11-14T05:01:59.070Z,2.75
2022-11-14T05:12:21.953Z,2.73
2022-11-14T05:22:43.337Z,2.62
2022-11-14T05:33:06.330Z,2.53
2022-11-14T05:43:31.016Z,2.53
2022-11-14T05:53:53.851Z,2.56
2022-11-14T06:04:15.723Z,2.43
2022-11-14T06:14:38.842Z,2.50
2022-11-14T06:25:00.082Z,2.65
2022-11-14T06:35:22.705Z,2.69
2022-11-14T06:45:44.290Z,2.51
2022-11-14T06:56:09.064Z,2.43
2022-11-14T07:06:32.170Z,2.62
2022-11-14T07:16:55.283Z,2.67
2022-11-14T07:27:16.940Z,2.71
2022-11-14T07:37:39.796Z,2.81
2022-11-14T07:48:03.020Z,3.01
2022-11-14T07:58:25.868Z,3.36
2022-11-14T08:08:47.111Z,3.69
2022-11-14T08:19:09.917Z,3.95
2022-11-14T08:29:31.743Z,4.22
2022-11-14T08:39:55.113Z,4.55
2022-11-14T08:50:17.004Z,4.78
2022-11-14T09:00:39.649Z,5.10
2022-11-14T09:11:05.128Z,5.38
2022-11-14T09:21:28.620Z,5.65
2022-11-14T09:31:52.347Z,5.85
2022-11-14T09:42:30.406Z,6.24
2022-11-14T09:52:57.096Z,6.48
2022-11-14T10:03:27.817Z,6.78
2022-11-14T10:14:01.936Z,7.03
2022-11-14T10:24:50.810Z,7.26
2022-11-14T10:35:18.014Z,7.50
2022-11-14T10:45:45.783Z,7.77
2022-11-14T10:56:12.668Z,8.03
2022-11-14T11:06:35.436Z,8.25
2022-11-14T11:17:16.768Z,8.43
2022-11-14T11:27:40.003Z,8.59
2022-11-14T11:38:05.329Z,8.73
2022-11-14T11:48:33.328Z,8.90
2022-11-14T11:59:01.325Z,9.09
2022-11-14T12:10:03.221Z,9.43
2022-11-14T12:20:42.195Z,9.88
2022-11-14T12:31:10.584Z,9.90
2022-11-14T12:41:34.310Z,10.09
2022-11-14T12:51:57.217Z,9.97
2022-11-14T13:02:43.096Z,9.77
2022-11-14T13:13:26.362Z,9.47
2022-11-14T13:23:58.669Z,9.35
2022-11-14T13:34:38.537Z,9.30
2022-11-14T13:45:20.086Z,9.31
2022-11-14T13:55:57.273Z,9.30
2022-11-14T14:06:37.606Z,9.39
2022-11-14T14:17:05.046Z,9.34
2022-11-14T14:27:34.024Z,9.27
2022-11-14T14:37:58.162Z,9.12
2022-11-14T14:48:25.228Z,8.90
2022-11-14T14:58:48.517Z,8.73
2022-11-14T15:09:12.569Z,8.53
2022-11-14T15:19:40.981Z,8.29
2022-11-14T15:30:05.186Z,8.14
2022-11-14T15:40:28.711Z,7.92
2022-11-14T15:50:51.961Z,7.68
2022-11-14T16:01:22.359Z,7.55
2022-11-14T16:11:44.352Z,7.30
2022-11-14T16:22:07.377Z,7.19
2022-11-14T16:32:28.718Z,6.98
2022-11-14T16:42:51.737Z,6.77
2022-11-14T16:53:12.936Z,6.74
2022-11-14T17:03:36.063Z,6.64
2022-11-14T17:13:57.860Z,6.45
2022-11-14T17:24:20.593Z,6.20
2022-11-14T17:34:42.158Z,5.95
2022-11-14T17:45:05.499Z,5.71
2022-11-14T17:55:27.143Z,5.61
2022-11-14T18:05:50.686Z,5.45
2022-11-14T18:16:14.884Z,5.33
2022-11-14T18:26:37.804Z,5.25
2022-11-14T18:36:59.207Z,5.13
2022-11-14T18:47:22.089Z,5.08
2022-11-14T18:57:43.372Z,4.99
2022-11-14T19:08:07.820Z,4.97
2022-11-14T19:18:30.184Z,5.22
2022-11-14T19:28:53.633Z,5.54
2022-11-14T19:39:15.103Z,5.79
2022-11-14T19:49:37.741Z,5.99
2022-11-14T19:59:59.048Z,6.17
2022-11-14T20:10:22.122Z,6.31
2022-11-14T20:20:43.687Z,6.47
2022-11-14T20:31:08.684Z,6.60
2022-11-14T20:41:30.134Z,6.66
2022-11-14T20:51:53.262Z,6.77
2022-11-14T21:02:15.077Z,6.85
2022-11-14T21:12:38.161Z,6.95
2022-11-14T21:22:59.415Z,7.05
2022-11-14T21:33:22.217Z,7.12
2022-11-14T21:43:44.347Z,7.20
2022-11-14T21:54:08.395Z,7.22
2022-11-14T22:04:31.430Z,7.25
2022-11-14T22:14:54.199Z,7.32
2022-11-14T22:25:15.819Z,7.36
2022-11-14T22:35:38.331Z,7.40
2022-11-14T22:46:00.510Z,7.45
2022-11-14T22:56:25.443Z,7.51
2022-11-14T23:06:47.187Z,7.50
2022-11-14T23:17:10.213Z,7.54
2022-11-14T23:27:31.621Z,7.63
2022-11-14T23:37:54.320Z,7.68
2022-11-14T23:48:16.074Z,7.81
2022-11-14T23:58:39.201Z,7.99
